Time;durP1;ratioP1;P1;durP2;ratioP2;P2;SDS_P1;SDS_P2;PMS_P1;PMS_P2;Temp;Humidity;BMP_temperature;BMP_pressure;BME280_temperature;BME280_humidity;BME280_pressure;Samples;Min_cycle;Max_cycle;Signal;HPM_P1;HPM_P2
2020/12/18 00:01:43;;;;;;;6.25;3.70;;;8.40;87.00;;;;;;5001086;28;20038;-90
2020/12/18 00:04:09;;;;;;;9.40;5.28;;;8.40;87.00;;;;;;5018924;28;20022;-89
2020/12/18 00:06:35;;;;;;;8.98;5.22;;;8.40;87.00;;;;;;5017764;28;20030;-90
2020/12/18 00:09:03;;;;;;;10.25;5.20;;;8.40;87.70;;;;;;5007395;28;20082;-91
2020/12/18 00:11:29;;;;;;;7.75;5.00;;;8.30;87.10;;;;;;4999801;28;20034;-90
2020/12/18 00:13:55;;;;;;;7.75;4.63;;;8.30;87.20;;;;;;5009880;28;20049;-91
2020/12/18 00:16:22;;;;;;;6.35;4.03;;;8.30;87.20;;;;;;5013007;28;20061;-90
2020/12/18 00:18:48;;;;;;;8.75;4.82;;;8.30;87.20;;;;;;4993332;28;20011;-90
2020/12/18 00:21:21;;;;;;;7.32;4.88;;;8.30;87.20;;;;;;4981815;28;20030;-90
2020/12/18 00:23:47;;;;;;;5.60;4.32;;;8.30;87.20;;;;;;4985738;28;20027;-88
2020/12/18 00:26:13;;;;;;;9.82;4.97;;;8.30;87.20;;;;;;4977743;28;20011;-88
2020/12/18 00:28:39;;;;;;;7.18;4.45;;;8.30;87.20;;;;;;4981813;28;20061;-89
2020/12/18 00:31:05;;;;;;;7.50;3.70;;;8.30;87.20;;;;;;5004100;28;20484;-89
2020/12/18 00:33:30;;;;;;;10.07;5.43;;;8.30;87.20;;;;;;4991958;28;20033;-89
2020/12/18 00:35:57;;;;;;;7.90;4.75;;;8.40;87.20;;;;;;4978046;28;20125;-88
2020/12/18 00:38:23;;;;;;;12.30;8.25;;;8.40;87.20;;;;;;4961864;28;20030;-89
2020/12/18 00:40:48;;;;;;;7.53;4.60;;;8.40;87.20;;;;;;4995226;28;20042;-89
2020/12/18 00:43:14;;;;;;;8.05;5.00;;;8.40;87.30;;;;;;4963668;28;20029;-88
2020/12/18 00:45:41;;;;;;;10.10;6.10;;;8.40;87.20;;;;;;5000097;28;20027;-87
2020/12/18 00:48:07;;;;;;;8.52;4.78;;;8.40;87.20;;;;;;5002663;28;20073;-89
2020/12/18 00:50:33;;;;;;;8.15;5.50;;;8.30;87.20;;;;;;4989397;28;20022;-88
2020/12/18 00:52:59;;;;;;;6.38;4.20;;;8.30;87.20;;;;;;4964762;28;20059;-88
2020/12/18 00:55:24;;;;;;;7.32;4.40;;;8.40;87.40;;;;;;4990347;28;20034;-88
2020/12/18 00:57:50;;;;;;;7.45;5.30;;;8.40;87.30;;;;;;4983487;28;20034;-89
2020/12/18 01:00:16;;;;;;;5.93;3.58;;;8.40;87.20;;;;;;4974811;28;20031;-89
2020/12/18 01:02:42;;;;;;;7.53;4.95;;;8.40;87.20;;;;;;4975254;28;20105;-90
2020/12/18 01:05:08;;;;;;;9.98;5.18;;;8.40;87.10;;;;;;4988165;28;20038;-89
2020/12/18 01:07:33;;;;;;;9.27;5.70;;;8.40;87.10;;;;;;4952514;28;20084;-89
2020/12/18 01:09:59;;;;;;;9.50;5.25;;;8.30;87.10;;;;;;4974272;28;20038;-89
2020/12/18 01:12:25;;;;;;;9.35;5.80;;;8.40;87.20;;;;;;4984688;28;20022;-89
2020/12/18 01:14:50;;;;;;;8.63;4.97;;;8.30;87.20;;;;;;4989921;28;20038;-90
2020/12/18 01:17:16;;;;;;;10.98;5.80;;;8.30;87.30;;;;;;4965077;28;20026;-89
2020/12/18 01:19:41;;;;;;;6.57;5.03;;;8.40;87.30;;;;;;4989321;28;20022;-90
2020/12/18 01:22:07;;;;;;;9.30;5.88;;;8.50;87.40;;;;;;5001601;28;20150;-88
2020/12/18 01:24:33;;;;;;;8.05;5.53;;;8.30;87.30;;;;;;4987779;28;20026;-88
2020/12/18 01:26:58;;;;;;;13.05;7.38;;;8.20;87.30;;;;;;4977342;28;20057;-89
2020/12/18 01:29:25;;;;;;;8.45;5.10;;;8.30;87.40;;;;;;4993295;28;20158;-89
2020/12/18 01:31:51;;;;;;;7.90;5.80;;;8.30;87.50;;;;;;4994242;28;20506;-89
2020/12/18 01:34:17;;;;;;;7.78;5.32;;;8.20;87.40;;;;;;4980430;28;20027;-89
2020/12/18 01:36:43;;;;;;;7.93;5.22;;;8.20;87.40;;;;;;4976925;28;20209;-89
2020/12/18 01:39:08;;;;;;;7.97;4.63;;;8.30;87.50;;;;;;5001705;28;20061;-89
2020/12/18 01:41:34;;;;;;;10.57;6.30;;;8.30;87.50;;;;;;5010076;28;20050;-91
2020/12/18 01:44:01;;;;;;;10.13;6.18;;;8.20;87.50;;;;;;4977534;28;20042;-89
2020/12/18 01:46:29;;;;;;;6.88;3.45;;;8.30;87.50;;;;;;4970110;28;20033;-89
2020/12/18 01:48:56;;;;;;;10.38;5.38;;;8.30;87.50;;;;;;4983304;28;20467;-88
2020/12/18 01:51:23;;;;;;;9.75;5.40;;;8.30;87.40;;;;;;4987723;28;20078;-87
2020/12/18 01:53:49;;;;;;;7.38;4.47;;;8.30;87.40;;;;;;4977035;28;20026;-88
2020/12/18 01:56:15;;;;;;;5.60;3.20;;;8.30;87.40;;;;;;4988659;28;20090;-88
2020/12/18 01:58:43;;;;;;;5.30;3.80;;;8.30;88.10;;;;;;4983328;28;20030;-88
2020/12/18 02:01:10;;;;;;;6.80;3.88;;;8.30;87.40;;;;;;4983193;28;20042;-88
2020/12/18 02:03:38;;;;;;;11.55;6.03;;;8.30;87.30;;;;;;4972094;28;20030;-88
2020/12/18 02:06:14;;;;;;;7.43;4.85;;;8.30;87.30;;;;;;4971111;28;20054;-88
2020/12/18 02:08:41;;;;;;;5.00;3.55;;;8.30;87.30;;;;;;4982219;28;20018;-89
2020/12/18 02:11:10;;;;;;;9.50;4.70;;;8.30;87.30;;;;;;4965512;28;20026;-88
2020/12/18 02:13:36;;;;;;;6.68;4.30;;;8.30;87.30;;;;;;4987233;28;20484;-88
2020/12/18 02:16:03;;;;;;;13.00;7.55;;;8.30;87.90;;;;;;4974035;28;20038;-89
2020/12/18 02:18:29;;;;;;;7.82;5.20;;;8.30;87.30;;;;;;4992695;28;20030;-88
2020/12/18 02:20:55;;;;;;;8.18;5.03;;;8.30;87.30;;;;;;4997419;28;20042;-88
2020/12/18 02:23:20;;;;;;;9.15;5.75;;;8.30;87.40;;;;;;4991520;28;20029;-87
2020/12/18 02:26:22;;;;;;;8.95;5.38;;;8.20;87.30;;;;;;4992709;28;20057;-88
2020/12/18 02:28:47;;;;;;;11.55;6.35;;;8.20;87.40;;;;;;4945956;29;20094;-87
2020/12/18 02:31:14;;;;;;;6.32;4.07;;;8.20;87.40;;;;;;4968668;28;20190;-87
2020/12/18 02:33:43;;;;;;;10.30;5.95;;;8.20;87.60;;;;;;4956169;28;20488;-87
2020/12/18 02:36:09;;;;;;;8.18;4.75;;;8.10;87.80;;;;;;4956999;28;20113;-88
2020/12/18 02:38:35;;;;;;;10.63;3.97;;;8.20;87.70;;;;;;4979942;28;20089;-87
2020/12/18 02:41:01;;;;;;;9.95;5.10;;;8.10;87.60;;;;;;4988371;28;20042;-88
2020/12/18 02:43:26;;;;;;;7.50;3.40;;;8.10;87.60;;;;;;4992353;28;20106;-88
2020/12/18 02:45:52;;;;;;;7.18;4.50;;;8.10;87.60;;;;;;4975387;28;20034;-87
2020/12/18 02:48:18;;;;;;;8.52;4.78;;;8.10;87.60;;;;;;4974704;28;20110;-89
2020/12/18 02:50:46;;;;;;;10.85;4.68;;;8.10;87.70;;;;;;4985822;28;20494;-88
2020/12/18 02:53:14;;;;;;;8.18;4.60;;;8.10;87.70;;;;;;4964571;28;20033;-88
2020/12/18 02:55:41;;;;;;;5.10;3.22;;;8.10;87.70;;;;;;4972378;28;20031;-88
2020/12/18 02:58:07;;;;;;;10.23;4.50;;;8.10;88.30;;;;;;4955275;28;20023;-88
2020/12/18 03:00:34;;;;;;;8.68;4.78;;;8.10;87.70;;;;;;4972781;28;20362;-88
2020/12/18 03:03:00;;;;;;;7.22;3.63;;;8.10;87.70;;;;;;4972666;28;20089;-88
2020/12/18 03:05:26;;;;;;;7.63;3.90;;;8.10;87.70;;;;;;4971294;28;20038;-88
2020/12/18 03:07:51;;;;;;;8.02;4.25;;;8.00;87.70;;;;;;4973104;28;20027;-88
2020/12/18 03:10:17;;;;;;;8.85;4.95;;;8.00;87.70;;;;;;4991976;28;20030;-88
2020/12/18 03:12:44;;;;;;;8.43;4.28;;;8.00;87.70;;;;;;4975105;28;20568;-88
2020/12/18 03:15:10;;;;;;;8.43;4.50;;;8.00;87.70;;;;;;4973503;28;20027;-88
2020/12/18 03:17:36;;;;;;;7.82;5.57;;;8.00;87.70;;;;;;4972114;28;20036;-88
2020/12/18 03:20:02;;;;;;;5.15;2.70;;;7.90;87.60;;;;;;4988863;28;20034;-88
2020/12/18 03:22:27;;;;;;;8.68;4.47;;;8.10;88.40;;;;;;4977404;28;20031;-88
2020/12/18 03:24:53;;;;;;;9.48;4.05;;;8.10;87.80;;;;;;4988082;28;20049;-90
2020/12/18 03:27:19;;;;;;;5.75;3.00;;;7.90;87.70;;;;;;4988016;28;20039;-89
2020/12/18 03:29:44;;;;;;;3.80;2.55;;;8.00;87.70;;;;;;4977907;28;20027;-89
2020/12/18 03:32:10;;;;;;;9.07;4.20;;;8.00;87.70;;;;;;4982972;28;20038;-88
2020/12/18 03:34:35;;;;;;;6.35;2.78;;;8.00;87.60;;;;;;4989907;28;20042;-88
2020/12/18 03:37:01;;;;;;;6.05;3.50;;;8.10;87.70;;;;;;4991183;28;20086;-89
2020/12/18 03:39:26;;;;;;;4.55;2.83;;;8.00;87.60;;;;;;5000956;28;20029;-89
2020/12/18 03:41:52;;;;;;;6.35;4.10;;;8.00;87.60;;;;;;5003890;28;20058;-89
2020/12/18 03:44:18;;;;;;;11.80;5.18;;;8.00;87.60;;;;;;4967372;28;20361;-88
2020/12/18 03:46:43;;;;;;;7.20;3.40;;;7.90;87.60;;;;;;4991380;28;20050;-90
2020/12/18 03:49:09;;;;;;;6.88;3.80;;;8.00;87.80;;;;;;4966990;28;20162;-89
2020/12/18 03:51:34;;;;;;;5.60;3.33;;;7.90;87.70;;;;;;5004779;28;20023;-89
2020/12/18 03:54:00;;;;;;;6.28;3.83;;;8.00;87.80;;;;;;4983588;28;20085;-89
2020/12/18 03:56:25;;;;;;;2.30;2.00;;;7.90;87.60;;;;;;4972437;28;20030;-88
2020/12/18 03:58:51;;;;;;;4.13;2.70;;;7.90;87.60;;;;;;4957906;28;20516;-88
2020/12/18 04:01:16;;;;;;;5.93;3.42;;;7.90;87.60;;;;;;4991877;28;20030;-88
2020/12/18 04:03:42;;;;;;;5.15;3.22;;;8.00;87.70;;;;;;4979211;28;20027;-88
2020/12/18 04:06:08;;;;;;;6.82;3.67;;;7.90;87.70;;;;;;4995282;28;20041;-88
2020/12/18 04:08:33;;;;;;;5.57;2.70;;;7.90;87.60;;;;;;4992143;28;20050;-88
2020/12/18 04:10:59;;;;;;;3.55;2.40;;;8.00;87.70;;;;;;4966209;28;20037;-88
2020/12/18 04:13:26;;;;;;;5.32;3.10;;;7.90;87.60;;;;;;5000162;28;20033;-89
2020/12/18 04:15:51;;;;;;;6.63;3.72;;;7.90;87.60;;;;;;4986428;28;20039;-87
2020/12/18 04:18:17;;;;;;;5.72;3.08;;;7.80;87.50;;;;;;4971799;28;20527;-87
2020/12/18 04:20:42;;;;;;;6.93;3.80;;;7.90;87.60;;;;;;4999380;28;20031;-88
2020/12/18 04:23:09;;;;;;;9.20;4.18;;;7.90;87.60;;;;;;4980137;28;20053;-88
2020/12/18 04:25:34;;;;;;;7.38;4.13;;;8.00;88.30;;;;;;4976559;28;20105;-90
2020/12/18 04:28:00;;;;;;;6.72;3.70;;;7.90;87.60;;;;;;5010368;28;20023;-87
2020/12/18 04:30:26;;;;;;;5.63;3.42;;;7.90;87.60;;;;;;5021754;28;20057;-86
2020/12/18 04:32:51;;;;;;;9.48;4.70;;;7.90;87.60;;;;;;4990330;28;20421;-88
2020/12/18 04:35:17;;;;;;;5.38;3.25;;;7.90;87.60;;;;;;5001935;28;20022;-89
2020/12/18 04:37:43;;;;;;;5.60;3.17;;;7.80;87.60;;;;;;5024757;28;20014;-88
2020/12/18 04:40:09;;;;;;;3.92;2.55;;;7.90;87.70;;;;;;5035441;28;20014;-89
2020/12/18 04:42:35;;;;;;;7.10;3.65;;;7.90;87.70;;;;;;5027377;28;20048;-89
2020/12/18 04:45:03;;;;;;;6.65;2.88;;;7.90;87.70;;;;;;5003063;28;20046;-89
2020/12/18 04:47:31;;;;;;;6.10;3.13;;;7.90;88.30;;;;;;4980207;28;20030;-88
2020/12/18 04:49:58;;;;;;;5.30;2.75;;;7.90;87.60;;;;;;4991132;28;20019;-89
2020/12/18 04:52:29;;;;;;;6.53;3.05;;;7.90;87.60;;;;;;4993580;28;20034;-89
2020/12/18 04:54:59;;;;;;;5.03;3.05;;;7.90;87.60;;;;;;4982309;28;20042;-89
2020/12/18 04:57:26;;;;;;;7.65;3.70;;;7.90;87.60;;;;;;4996502;28;20528;-90
2020/12/18 04:59:52;;;;;;;3.40;2.25;;;8.00;87.70;;;;;;5021843;28;20044;-88
2020/12/18 05:02:18;;;;;;;7.82;4.20;;;7.80;87.70;;;;;;5004758;28;20034;-89
2020/12/18 05:04:44;;;;;;;7.53;3.88;;;7.80;87.60;;;;;;4999238;28;20023;-89
2020/12/18 05:07:09;;;;;;;5.00;3.22;;;7.80;87.70;;;;;;4979761;28;20105;-89
2020/12/18 05:09:35;;;;;;;10.18;4.28;;;7.80;87.70;;;;;;4977209;28;20018;-89
2020/12/18 05:12:06;;;;;;;7.07;3.50;;;7.80;87.70;;;;;;4959299;28;20129;-90
2020/12/18 05:14:31;;;;;;;5.72;3.38;;;7.80;87.70;;;;;;4956622;28;20034;-89
2020/12/18 05:17:04;;;;;;;4.53;2.63;;;7.80;87.70;;;;;;4974557;28;20175;-87
2020/12/18 05:19:35;;;;;;;5.30;2.90;;;7.80;87.70;;;;;;4974476;28;20469;-88
2020/12/18 05:22:05;;;;;;;4.03;2.40;;;7.80;87.80;;;;;;5009692;28;20038;-88
2020/12/18 05:24:31;;;;;;;5.68;2.92;;;7.80;87.80;;;;;;5007903;28;20022;-88
2020/12/18 05:27:01;;;;;;;5.13;3.05;;;7.80;87.70;;;;;;4960349;28;20031;-90
2020/12/18 05:29:27;;;;;;;7.20;4.00;;;7.80;87.70;;;;;;4978948;28;20039;-88
2020/12/18 05:31:59;;;;;;;5.47;3.42;;;7.80;87.80;;;;;;4991977;28;20026;-88
2020/12/18 05:34:25;;;;;;;4.87;3.20;;;7.70;87.70;;;;;;4961540;28;20089;-90
2020/12/18 05:36:51;;;;;;;8.27;4.00;;;7.80;87.80;;;;;;5011915;28;20034;-90
2020/12/18 05:39:17;;;;;;;5.18;2.97;;;7.80;87.80;;;;;;4982095;28;20113;-89
2020/12/18 05:41:45;;;;;;;5.97;3.70;;;7.70;87.80;;;;;;5000656;28;20134;-89
2020/12/18 05:44:10;;;;;;;5.82;3.20;;;7.70;87.90;;;;;;5013663;28;20025;-89
2020/12/18 05:46:40;;;;;;;6.47;3.70;;;7.70;87.80;;;;;;5005074;28;20116;-90
2020/12/18 05:49:07;;;;;;;5.80;2.80;;;7.80;87.90;;;;;;5002303;28;20061;-88
2020/12/18 05:51:38;;;;;;;7.63;3.70;;;7.70;87.80;;;;;;5011424;28;20034;-89
2020/12/18 05:54:11;;;;;;;6.97;3.90;;;7.70;87.80;;;;;;4991805;28;20049;-89
2020/12/18 05:56:38;;;;;;;5.45;3.10;;;7.80;87.90;;;;;;4984003;28;20026;-89
2020/12/18 05:59:12;;;;;;;4.20;2.45;;;7.70;87.80;;;;;;4993084;28;20170;-88
2020/12/18 06:01:41;;;;;;;6.60;3.00;;;7.80;87.80;;;;;;4996311;28;20042;-89
2020/12/18 06:04:11;;;;;;;4.63;2.80;;;7.70;87.70;;;;;;4994618;28;20015;-95
2020/12/18 06:06:47;;;;;;;6.15;3.47;;;7.90;87.90;;;;;;4956392;28;20046;-88
2020/12/18 06:09:14;;;;;;;5.57;2.65;;;7.80;87.80;;;;;;4964801;28;20014;-88
2020/12/18 06:11:40;;;;;;;4.50;2.35;;;7.80;87.80;;;;;;5011241;28;20456;-87
2020/12/18 06:14:08;;;;;;;5.82;3.00;;;7.80;87.70;;;;;;5012172;28;20040;-88
2020/12/18 06:16:45;;;;;;;6.60;3.60;;;7.80;87.70;;;;;;5000541;28;20112;-87
2020/12/18 06:19:15;;;;;;;8.75;3.22;;;7.80;87.70;;;;;;5012394;28;20026;-88
2020/12/18 06:21:48;;;;;;;4.28;2.35;;;7.80;87.70;;;;;;4979597;28;20491;-87
2020/12/18 06:24:14;;;;;;;4.95;2.58;;;7.90;87.80;;;;;;4994483;28;20109;-87
2020/12/18 06:26:40;;;;;;;6.43;2.50;;;7.90;87.70;;;;;;4994923;28;20026;-88
2020/12/18 06:29:06;;;;;;;5.50;2.63;;;7.90;87.70;;;;;;4994237;28;20050;-88
2020/12/18 06:31:33;;;;;;;6.05;3.13;;;7.90;87.70;;;;;;4987508;28;20030;-88
2020/12/18 06:34:01;;;;;;;6.93;3.03;;;8.00;87.80;;;;;;4975979;28;20033;-89
2020/12/18 06:36:46;;;;;;;6.05;2.20;;;8.00;87.90;;;;;;4970060;28;20054;-89
2020/12/18 06:39:21;;;;;;;4.53;2.33;;;8.00;87.80;;;;;;5003911;28;20026;-89
2020/12/18 06:41:47;;;;;;;5.95;2.65;;;8.00;87.80;;;;;;4995320;28;20047;-88
2020/12/18 06:44:58;;;;;;;6.82;2.72;;;8.10;87.80;;;;;;4999461;28;20015;-89
2020/12/18 06:47:30;;;;;;;5.50;2.40;;;8.10;87.80;;;;;;4947717;28;20234;-87
2020/12/18 06:49:56;;;;;;;4.10;2.20;;;8.10;87.80;;;;;;4955942;28;20028;-88
2020/12/18 06:52:48;;;;;;;4.28;2.40;;;8.10;87.80;;;;;;4981598;28;20097;-88
2020/12/18 06:55:28;;;;;;;9.75;4.22;;;8.20;87.80;;;;;;4996563;28;20010;-87
2020/12/18 06:58:06;;;;;;;6.82;2.78;;;8.20;87.70;;;;;;4969980;28;20067;-89
2020/12/18 07:00:34;;;;;;;8.73;4.10;;;8.20;87.80;;;;;;4972000;28;20034;-90
2020/12/18 07:02:59;;;;;;;5.32;2.75;;;8.20;87.80;;;;;;5010054;28;20023;-89
2020/12/18 07:05:41;;;;;;;6.68;3.25;;;8.20;87.90;;;;;;5014935;28;20044;-89
2020/12/18 07:08:09;;;;;;;3.47;2.13;;;8.30;88.60;;;;;;5001690;28;20038;-89
2020/12/18 07:10:40;;;;;;;2.38;1.63;;;8.30;87.90;;;;;;4979587;28;20023;-87
2020/12/18 07:13:08;;;;;;;6.95;3.17;;;8.30;87.90;;;;;;4982727;28;20149;-89
2020/12/18 07:15:48;;;;;;;5.55;2.55;;;8.30;87.80;;;;;;4983219;28;20019;-90
2020/12/18 07:18:14;;;;;;;5.60;2.33;;;8.40;87.90;;;;;;4981407;28;20039;-88
2020/12/18 07:21:01;;;;;;;7.30;2.80;;;8.40;87.90;;;;;;4975519;28;20037;-88
2020/12/18 07:23:28;;;;;;;5.97;2.60;;;8.40;87.80;;;;;;4962272;28;20619;-88
2020/12/18 07:25:55;;;;;;;6.75;2.50;;;8.30;87.60;;;;;;4963113;28;20633;-89
2020/12/18 07:28:22;;;;;;;5.95;2.88;;;8.30;87.70;;;;;;4992205;28;20030;-90
2020/12/18 07:30:49;;;;;;;4.65;2.58;;;8.30;87.60;;;;;;4993302;28;20510;-88
2020/12/18 07:33:17;;;;;;;7.03;3.40;;;8.30;87.60;;;;;;4993963;28;20034;-91
2020/12/18 07:35:48;;;;;;;10.20;3.95;;;8.30;87.60;;;;;;4992479;28;20033;-93
2020/12/18 07:38:22;;;;;;;6.07;3.05;;;8.30;87.60;;;;;;4984598;28;20019;-94
2020/12/18 07:40:52;;;;;;;7.82;3.47;;;8.30;87.70;;;;;;4992318;28;20134;-95
2020/12/18 07:43:21;;;;;;;8.50;3.42;;;8.30;87.70;;;;;;5003745;28;20383;-93
2020/12/18 07:45:55;;;;;;;4.03;2.33;;;8.30;87.70;;;;;;4998232;28;20109;-94
2020/12/18 07:48:39;;;;;;;3.83;2.65;;;8.30;87.70;;;;;;4998702;28;20030;-87
2020/12/18 07:51:10;;;;;;;5.70;2.65;;;8.30;87.60;;;;;;4991332;28;20054;-91
2020/12/18 07:53:38;;;;;;;7.57;3.63;;;8.30;87.60;;;;;;4968768;28;20404;-90
2020/12/18 07:56:08;;;;;;;5.50;2.88;;;8.30;87.50;;;;;;4976284;28;20034;-92
2020/12/18 07:58:48;;;;;;;4.35;2.30;;;8.30;87.50;;;;;;4988152;28;20039;-91
2020/12/18 08:01:22;;;;;;;7.38;3.15;;;8.30;87.40;;;;;;4986929;28;20054;-90
2020/12/18 08:03:50;;;;;;;8.32;2.97;;;8.40;88.00;;;;;;4984952;28;20054;-90
2020/12/18 08:06:21;;;;;;;10.13;4.75;;;8.40;87.40;;;;;;4970466;28;20073;-89
2020/12/18 08:08:58;;;;;;;7.93;3.28;;;8.40;87.30;;;;;;4992778;28;20029;-89
2020/12/18 08:11:31;;;;;;;5.70;3.08;;;8.40;87.30;;;;;;4990092;28;20030;-90
2020/12/18 08:14:01;;;;;;;5.82;3.05;;;8.40;87.30;;;;;;4997298;28;20030;-89
2020/12/18 08:16:30;;;;;;;4.35;2.70;;;8.50;87.40;;;;;;4995208;28;20027;-89
2020/12/18 08:19:00;;;;;;;7.72;3.47;;;8.50;87.30;;;;;;4993298;28;20114;-89
2020/12/18 08:21:46;;;;;;;4.03;2.47;;;8.50;87.40;;;;;;4994567;28;20085;-88
2020/12/18 08:24:20;;;;;;;7.75;3.33;;;8.50;87.30;;;;;;4994550;28;20026;-89
2020/12/18 08:27:00;;;;;;;8.40;4.07;;;8.60;87.20;;;;;;4997326;28;20074;-89
2020/12/18 08:29:31;;;;;;;8.43;4.40;;;8.60;87.20;;;;;;5000724;28;20073;-89
2020/12/18 08:31:58;;;;;;;5.63;3.20;;;8.60;87.30;;;;;;5010322;28;20030;-89
2020/12/18 08:34:29;;;;;;;7.88;3.88;;;8.60;87.30;;;;;;4990953;28;20028;-89
2020/12/18 08:36:55;;;;;;;6.25;3.20;;;8.60;87.30;;;;;;5004575;28;20043;-87
2020/12/18 08:39:21;;;;;;;5.60;3.70;;;8.60;87.80;;;;;;4997315;28;20018;-88
2020/12/18 08:41:52;;;;;;;8.45;3.33;;;8.60;87.20;;;;;;5014499;28;20137;-87
2020/12/18 08:44:27;;;;;;;5.25;3.30;;;8.60;87.20;;;;;;5014027;28;20034;-88
2020/12/18 08:46:54;;;;;;;9.20;3.85;;;8.60;87.20;;;;;;5011217;28;20030;-89
2020/12/18 08:49:25;;;;;;;7.85;4.28;;;8.70;87.20;;;;;;5006920;28;20115;-89
2020/12/18 08:51:55;;;;;;;11.13;4.80;;;8.70;87.20;;;;;;5013826;28;20062;-86
2020/12/18 08:54:40;;;;;;;9.20;4.53;;;8.70;87.20;;;;;;4989609;28;20200;-87
2020/12/18 08:57:26;;;;;;;7.03;3.53;;;8.70;87.30;;;;;;4984177;28;20666;-88
2020/12/18 09:00:10;;;;;;;5.55;2.72;;;8.70;87.30;;;;;;4984067;28;20082;-87
2020/12/18 09:02:56;;;;;;;10.15;5.57;;;8.70;87.20;;;;;;4983265;28;20030;-87
2020/12/18 09:05:31;;;;;;;7.22;4.30;;;8.70;87.20;;;;;;4999224;28;20041;-87
2020/12/18 09:08:02;;;;;;;8.93;4.80;;;8.80;87.30;;;;;;4982821;28;20062;-88
2020/12/18 09:10:41;;;;;;;7.57;4.10;;;8.80;87.30;;;;;;4989966;28;20047;-88
2020/12/18 09:13:16;;;;;;;6.75;3.50;;;8.80;87.20;;;;;;4985238;28;20546;-85
2020/12/18 09:15:44;;;;;;;6.32;3.17;;;8.80;87.20;;;;;;4981693;28;20027;-87
2020/12/18 09:18:12;;;;;;;6.35;3.17;;;8.90;87.20;;;;;;4988388;28;20087;-87
2020/12/18 09:20:43;;;;;;;6.65;4.70;;;8.90;87.10;;;;;;4999105;28;20034;-88
2020/12/18 09:23:12;;;;;;;10.15;4.53;;;8.90;87.70;;;;;;5001678;28;20034;-87
2020/12/18 09:25:47;;;;;;;6.05;3.30;;;8.90;87.10;;;;;;4979229;28;20011;-88
2020/12/18 09:28:18;;;;;;;8.93;4.43;;;8.90;87.00;;;;;;5001288;28;20074;-88
2020/12/18 09:30:48;;;;;;;11.45;6.63;;;8.80;86.90;;;;;;5005280;28;20523;-85
2020/12/18 09:33:27;;;;;;;6.80;4.10;;;9.00;87.00;;;;;;4980734;28;20824;-87
2020/12/18 09:35:59;;;;;;;7.03;4.65;;;8.90;86.90;;;;;;5020667;23;20064;-87
2020/12/18 09:38:26;;;;;;;12.27;5.75;;;8.90;86.90;;;;;;5024337;28;20014;-89
2020/12/18 09:40:51;;;;;;;7.00;4.30;;;9.00;86.90;;;;;;5001203;28;20058;-88
2020/12/18 09:43:18;;;;;;;7.15;4.28;;;8.90;86.90;;;;;;5003693;28;20018;-85
2020/12/18 09:45:44;;;;;;;7.13;4.65;;;9.00;87.00;;;;;;5011958;28;20528;-86
2020/12/18 09:48:10;;;;;;;10.10;5.10;;;9.00;86.90;;;;;;4963113;28;20058;-87
2020/12/18 09:50:35;;;;;;;9.07;5.53;;;9.00;86.80;;;;;;4997377;28;20361;-89
2020/12/18 09:53:01;;;;;;;6.30;3.90;;;9.10;86.90;;;;;;4991311;28;20037;-89
2020/12/18 09:55:30;;;;;;;6.70;3.50;;;9.10;86.80;;;;;;4984980;28;20022;-88
2020/12/18 09:57:56;;;;;;;7.25;4.70;;;9.20;86.80;;;;;;4998105;28;20517;-88
2020/12/18 10:00:22;;;;;;;7.50;4.10;;;9.20;86.70;;;;;;4994989;28;20082;-88
2020/12/18 10:02:48;;;;;;;6.65;3.72;;;9.20;86.60;;;;;;4991964;28;20042;-87
2020/12/18 10:05:14;;;;;;;8.85;4.72;;;9.20;87.10;;;;;;4984782;28;20034;-88
2020/12/18 10:07:40;;;;;;;7.15;3.92;;;9.20;86.50;;;;;;4984287;28;20145;-86
2020/12/18 10:10:05;;;;;;;7.18;4.18;;;9.30;86.50;;;;;;4995194;28;20041;-88
2020/12/18 10:12:31;;;;;;;6.88;3.78;;;9.30;86.50;;;;;;4995475;28;20172;-88
2020/12/18 10:14:57;;;;;;;5.88;3.30;;;9.30;86.40;;;;;;4999066;28;20026;-88
2020/12/18 10:17:23;;;;;;;4.90;2.70;;;9.40;86.30;;;;;;4990800;28;20078;-88
2020/12/18 10:19:49;;;;;;;5.18;2.70;;;9.50;86.30;;;;;;4978532;28;20619;-88
2020/12/18 10:22:14;;;;;;;5.00;3.03;;;9.50;86.20;;;;;;4974229;28;20061;-88
2020/12/18 10:24:41;;;;;;;6.35;3.10;;;9.50;86.20;;;;;;4986186;28;20437;-86
2020/12/18 10:27:07;;;;;;;6.47;3.13;;;9.50;86.10;;;;;;4984501;28;20034;-88
2020/12/18 10:29:33;;;;;;;9.10;4.28;;;9.60;86.00;;;;;;4975630;28;20383;-88
2020/12/18 10:31:59;;;;;;;5.88;3.42;;;9.50;85.90;;;;;;4985302;28;20051;-88
2020/12/18 10:34:25;;;;;;;7.10;3.85;;;9.60;85.90;;;;;;4992606;28;20034;-88
2020/12/18 10:36:53;;;;;;;6.28;4.00;;;9.50;85.80;;;;;;4990798;28;20038;-88
2020/12/18 10:39:19;;;;;;;7.63;4.35;;;9.60;85.80;;;;;;4989366;28;20034;-88
2020/12/18 10:41:44;;;;;;;8.82;4.47;;;9.70;85.80;;;;;;4972946;28;20042;-87
2020/12/18 10:44:10;;;;;;;7.97;3.40;;;9.70;85.60;;;;;;4985432;28;20023;-87
2020/12/18 10:46:36;;;;;;;7.60;3.25;;;9.70;85.60;;;;;;4991054;28;20022;-88
2020/12/18 10:49:02;;;;;;;7.00;3.95;;;9.70;85.60;;;;;;4991996;28;20494;-88
2020/12/18 10:51:28;;;;;;;8.27;4.15;;;9.80;85.50;;;;;;4972216;28;20026;-87
2020/12/18 10:53:54;;;;;;;7.28;3.70;;;9.80;85.30;;;;;;4987442;28;20026;-88
2020/12/18 10:56:20;;;;;;;6.03;3.05;;;9.90;85.20;;;;;;4998256;28;20481;-88
2020/12/18 10:58:45;;;;;;;3.80;2.80;;;9.90;85.00;;;;;;4971645;28;20559;-89
2020/12/18 11:01:16;;;;;;;7.70;3.60;;;10.00;85.00;;;;;;4986100;28;20040;-88
2020/12/18 11:03:41;;;;;;;6.30;3.33;;;10.00;84.70;;;;;;4963921;28;20019;-89
2020/12/18 11:06:07;;;;;;;5.00;2.50;;;10.10;84.70;;;;;;4962637;28;20038;-87
2020/12/18 11:08:32;;;;;;;5.75;3.55;;;10.10;84.50;;;;;;4971676;28;20628;-88
2020/12/18 11:10:58;;;;;;;7.70;3.58;;;10.20;84.30;;;;;;4989887;28;20495;-88
2020/12/18 11:13:24;;;;;;;5.03;3.35;;;10.20;84.00;;;;;;4972181;28;20042;-88
2020/12/18 11:15:49;;;;;;;6.03;3.45;;;10.20;84.00;;;;;;4991917;28;20034;-87
2020/12/18 11:18:15;;;;;;;6.35;3.75;;;10.20;83.40;;;;;;4976975;28;20023;-88
2020/12/18 11:20:41;;;;;;;7.30;3.25;;;10.20;83.40;;;;;;4970336;28;20026;-88
2020/12/18 11:23:06;;;;;;;8.63;3.35;;;10.30;83.60;;;;;;4977472;28;20033;-90
2020/12/18 11:25:32;;;;;;;6.70;3.40;;;10.40;83.50;;;;;;4967923;28;20027;-87
2020/12/18 11:27:57;;;;;;;6.55;2.80;;;10.50;83.50;;;;;;4981249;28;20022;-88
2020/12/18 11:30:23;;;;;;;6.47;3.97;;;10.60;83.30;;;;;;4974315;28;20114;-88
2020/12/18 11:32:49;;;;;;;11.30;4.68;;;10.50;82.80;;;;;;4994364;28;20030;-87
2020/12/18 11:35:16;;;;;;;10.25;4.82;;;10.60;82.70;;;;;;4976769;28;20081;-88
2020/12/18 11:38:26;;;;;;;6.00;3.00;;;10.60;82.60;;;;;;4996749;28;20053;-86
2020/12/18 11:40:53;;;;;;;5.93;3.00;;;10.70;82.60;;;;;;5057906;22;20084;-88
2020/12/18 11:43:19;;;;;;;7.60;3.90;;;10.80;82.60;;;;;;5003543;28;20045;-88
2020/12/18 11:45:45;;;;;;;5.47;3.13;;;10.80;82.40;;;;;;4975092;28;20023;-87
2020/12/18 11:48:10;;;;;;;5.85;3.30;;;10.90;82.30;;;;;;4982771;28;20484;-87
2020/12/18 11:50:36;;;;;;;6.32;3.20;;;10.90;82.00;;;;;;4995122;28;20038;-87
2020/12/18 11:53:04;;;;;;;6.32;3.65;;;10.90;81.90;;;;;;4985577;28;20030;-88
2020/12/18 11:55:30;;;;;;;5.88;3.08;;;11.00;82.00;;;;;;4998070;28;20046;-87
2020/12/18 11:57:57;;;;;;;5.93;3.13;;;11.10;82.00;;;;;;4996523;28;20058;-87
2020/12/18 12:00:22;;;;;;;7.68;3.22;;;11.10;81.70;;;;;;4973417;28;20125;-87
2020/12/18 12:02:50;;;;;;;6.43;3.45;;;11.10;81.60;;;;;;4980574;28;20138;-86
2020/12/18 12:05:21;;;;;;;6.55;3.10;;;11.20;81.50;;;;;;4971128;28;20030;-87
2020/12/18 12:07:47;;;;;;;5.95;3.30;;;11.20;81.90;;;;;;4974168;28;20148;-87
2020/12/18 12:10:14;;;;;;;6.80;3.20;;;11.20;81.20;;;;;;4971824;28;20112;-86
2020/12/18 12:12:39;;;;;;;6.63;2.90;;;11.30;81.10;;;;;;4970839;28;20015;-88
2020/12/18 12:15:06;;;;;;;4.90;2.90;;;11.30;81.70;;;;;;4985953;28;20365;-88
2020/12/18 12:17:32;;;;;;;8.07;3.47;;;11.40;81.00;;;;;;4988275;28;20057;-89
2020/12/18 12:19:57;;;;;;;6.22;3.08;;;11.50;80.40;;;;;;4984028;28;20449;-88
2020/12/18 12:22:46;;;;;;;8.05;4.10;;;11.50;80.50;;;;;;4984787;28;20034;-88
2020/12/18 12:25:12;;;;;;;7.45;2.92;;;11.60;79.80;;;;;;4953097;28;20078;-86
2020/12/18 12:27:38;;;;;;;8.50;3.47;;;12.20;80.90;;;;;;4988061;28;20034;-88
2020/12/18 12:30:04;;;;;;;7.93;3.50;;;13.50;78.20;;;;;;4986911;28;20031;-88
2020/12/18 12:32:29;;;;;;;4.38;2.50;;;14.60;74.90;;;;;;4964577;28;20022;-89
2020/12/18 12:34:55;;;;;;;4.18;2.38;;;15.40;73.20;;;;;;4992492;28;20022;-87
2020/12/18 12:37:21;;;;;;;6.55;2.30;;;15.90;70.10;;;;;;4994565;28;20030;-87
2020/12/18 12:39:53;;;;;;;5.85;2.60;;;16.30;69.10;;;;;;4996798;28;20041;-88
2020/12/18 12:42:19;;;;;;;5.03;2.60;;;16.50;66.30;;;;;;4998715;28;20034;-88
2020/12/18 12:44:44;;;;;;;4.43;2.15;;;16.50;66.60;;;;;;5012006;28;20086;-87
2020/12/18 12:47:10;;;;;;;5.00;2.20;;;16.80;67.70;;;;;;4989163;28;20032;-88
2020/12/18 12:49:38;;;;;;;2.60;1.65;;;16.70;65.10;;;;;;4977340;28;20563;-88
2020/12/18 12:52:03;;;;;;;4.20;2.08;;;16.60;65.50;;;;;;4985458;28;20034;-87
2020/12/18 12:54:30;;;;;;;5.13;2.15;;;16.70;65.00;;;;;;5011578;28;20021;-88
2020/12/18 12:56:56;;;;;;;3.83;2.13;;;16.70;64.30;;;;;;4990078;28;20011;-88
2020/12/18 12:59:21;;;;;;;3.90;2.00;;;16.70;63.60;;;;;;4991087;28;20033;-88
2020/12/18 13:01:48;;;;;;;5.28;2.05;;;16.70;63.20;;;;;;4984691;28;20010;-87